Time;durP1;ratioP1;P1;durP2;ratioP2;P2;SDS_P1;SDS_P2;PMS_P1;PMS_P2;Temp;Humidity;BMP_temperature;BMP_pressure;BME280_temperature;BME280_humidity;BME280_pressure;Samples;Min_cycle;Max_cycle;Signal;HPM_P1;HPM_P2
2023/02/10 03:14:56;;;;;;;;;;;;;;;5.95;100.00;101646.91;5375989;23;20416;-89
2023/02/10 03:17:26;;;;;;;;;;;;;;;5.97;100.00;101650.47;4954219;29;19977;-88
2023/02/10 03:19:52;;;;;;;;;;;;;;;5.98;100.00;101649.59;4955063;29;20259;-90
2023/02/10 03:22:17;;;;;;;;;;;;;;;6.02;100.00;101657.53;4937264;29;19925;-89
2023/02/10 03:24:42;;;;;;;;;;;;;;;6.04;100.00;101663.66;4928634;29;19962;-90
2023/02/10 03:27:07;;;;;;;;;;;;;;;6.05;100.00;101660.13;4947172;29;20344;-87
2023/02/10 03:29:33;;;;;;;;;;;;;;;6.06;100.00;101662.78;4927734;29;20003;-92
2023/02/10 03:32:01;;;;;;;;;;;;;;;6.07;100.00;101667.19;4946313;29;19918;-91
2023/02/10 03:34:26;;;;;;;;;;;;;;;6.09;100.00;101661.94;4955718;28;19918;-90
2023/02/10 03:36:54;;;;;;;;;;;;;;;6.11;100.00;101662.81;4938877;29;20384;-87
2023/02/10 03:39:20;;;;;;;;;;;;;;;6.11;100.00;101652.28;4938008;29;19918;-90
2023/02/10 03:42:10;;;;;;;;;;;;;;;;;;;;;
2023/02/10 03:44:56;;;;;;;;;;;;;;;6.13;100.00;101656.69;4953885;28;20362;-91
2023/02/10 03:48:02;;;;;;;;;;;;;;;;;;;;;
2023/02/10 04:13:08;;;;;;;;;;;;;;;6.26;100.00;101681.31;4964255;28;20025;-93
2023/02/10 04:16:08;;;;;;;;;;;;;;;;;;;;;
2023/02/10 04:18:34;;;;;;;;;;;;;;;6.28;100.00;101691.88;4956316;28;20362;-91
2023/02/10 04:21:03;;;;;;;;;;;;;;;6.28;100.00;101691.88;4946598;28;20284;-96
2023/02/10 09:04:53;;;;;;;;;;;;;;;6.08;100.00;101816.34;5025498;23;20050;-87
2023/02/10 09:07:22;;;;;;;;;;;;;;;6.09;100.00;101811.94;4965248;28;20370;-87
2023/02/10 09:09:47;;;;;;;;;;;;;;;6.13;100.00;101821.66;4964104;28;19922;-87
2023/02/10 09:12:12;;;;;;;;;;;;;;;6.13;100.00;101821.66;4962264;28;19945;-92
2023/02/10 09:14:40;;;;;;;;;;;;;;;6.15;100.00;101822.53;4962345;28;20494;-88
2023/02/10 09:17:29;;;;;;;;;;;;;;;6.15;100.00;101817.28;4963121;28;19973;-89
2023/02/10 09:20:28;;;;;;;;;;;;;;;6.16;100.00;101825.19;4962561;28;20333;-94
2023/02/10 09:23:23;;;;;;;;;;;;;;;6.18;100.00;101823.44;4948252;28;20265;-93
2023/02/10 09:26:35;;;;;;;;;;;;;;;6.20;100.00;101826.06;4953146;28;20381;-87
2023/02/10 09:29:03;;;;;;;;;;;;;;;6.22;100.00;101834.84;4943021;28;20389;-88
2023/02/10 09:31:28;;;;;;;;;;;;;;;6.24;100.00;101835.78;4945835;28;19918;-93
2023/02/10 09:34:03;;;;;;;;;;;;;;;;;;;;;
2023/02/10 09:36:31;;;;;;;;;;;;;;;6.25;100.00;101832.25;4963501;28;19944;-88
2023/02/10 09:39:19;;;;;;;;;;;;;;;6.28;100.00;101829.63;4958493;28;19918;-89
2023/02/10 09:45:37;;;;;;;;;;;;;;;6.31;100.00;101842.84;4904361;29;20403;-91
2023/02/10 09:48:41;;;;;;;;;;;;;;;6.33;100.00;101837.59;4912685;29;19923;-90
2023/02/10 09:51:21;;;;;;;;;;;;;;;6.35;100.00;101831.47;4884436;29;19924;-86
2023/02/10 09:53:47;;;;;;;;;;;;;;;6.37;100.00;101831.47;4883905;29;19920;-88
2023/02/10 09:56:21;;;;;;;;;;;;;;;6.37;100.00;101831.47;4912368;28;19934;-87
2023/02/10 09:59:18;;;;;;;;;;;;;;;6.39;100.00;101835.00;4961326;28;19937;-91
2023/02/10 10:01:54;;;;;;;;;;;;;;;6.41;100.00;101840.28;4961885;28;20378;-88
2023/02/10 10:04:29;;;;;;;;;;;;;;;6.40;100.00;101843.75;4958927;28;20038;-92
2023/02/10 10:07:13;;;;;;;;;;;;;;;6.41;100.00;101843.78;4953138;28;19958;-87
2023/02/10 10:09:44;;;;;;;;;;;;;;;6.44;100.00;101851.69;4962050;28;19961;-88
2023/02/10 10:12:29;;;;;;;;;;;;;;;;;;;;;
2023/02/10 10:14:58;;;;;;;;;;;;;;;6.46;100.00;101851.72;4967525;28;19918;-88
2023/02/10 10:17:42;;;;;;;;;;;;;;;6.46;100.00;101854.34;4966135;28;20484;-87
2023/02/10 10:20:13;;;;;;;;;;;;;;;6.46;100.00;101855.25;4950115;28;19918;-91
2023/02/10 10:22:47;;;;;;;;;;;;;;;6.48;100.00;101847.38;4966285;28;20394;-87
2023/02/10 10:25:49;;;;;;;;;;;;;;;6.48;100.00;101852.63;4966680;28;20018;-91
2023/02/10 10:28:26;;;;;;;;;;;;;;;6.49;100.00;101850.00;4872115;29;20515;-88
2023/02/10 10:30:59;;;;;;;;;;;;;;;6.49;100.00;101851.75;4954721;28;20045;-88
2023/02/10 10:33:48;;;;;;;;;;;;;;;6.51;100.00;101844.72;4947578;28;19960;-89
2023/02/10 10:36:15;;;;;;;;;;;;;;;6.53;100.00;101843.00;4937401;28;19952;-88
2023/02/10 10:38:50;;;;;;;;;;;;;;;6.54;100.00;101847.38;4948332;28;19949;-89
2023/02/10 10:41:16;;;;;;;;;;;;;;;6.54;100.00;101837.75;4948366;28;19928;-86
2023/02/10 10:43:49;;;;;;;;;;;;;;;6.57;100.00;101838.63;4946875;28;19919;-88
2023/02/10 10:46:33;;;;;;;;;;;;;;;6.56;100.00;101843.03;4947741;28;19945;-89
2023/02/10 10:48:58;;;;;;;;;;;;;;;6.57;100.00;101831.59;4955513;28;19929;-89
2023/02/10 10:51:25;;;;;;;;;;;;;;;5.90;100.00;101840.69;4947954;28;20469;-85
2023/02/10 10:53:51;;;;;;;;;;;;;;;5.00;100.00;101843.25;4964043;28;19923;-87
2023/02/10 10:56:29;;;;;;;;;;;;;;;4.65;100.00;101843.63;4948539;28;19938;-90
2023/02/10 10:58:55;;;;;;;;;;;;;;;4.43;100.00;101843.31;4945191;28;20021;-89
2023/02/10 11:01:31;;;;;;;;;;;;;;;4.32;100.00;101834.38;4965288;28;20057;-90
2023/02/10 11:04:05;;;;;;;;;;;;;;;4.21;100.00;101836.84;4939308;29;19926;-87
2023/02/10 11:06:34;;;;;;;;;;;;;;;4.08;100.00;101835.75;4946582;29;20393;-88
2023/02/10 11:09:01;;;;;;;;;;;;;;;4.02;100.00;101824.28;4927262;29;20326;-88
2023/02/10 11:11:34;;;;;;;;;;;;;;;3.94;100.00;101832.91;4935087;29;19967;-89
2023/02/10 11:14:00;;;;;;;;;;;;;;;3.90;100.00;101835.47;4947838;29;19915;-87
2023/02/10 11:16:26;;;;;;;;;;;;;;;3.81;100.00;101831.84;4944043;29;20290;-88
2023/02/10 11:18:59;;;;;;;;;;;;;;;3.77;100.00;101827.38;4942040;29;19982;-85
2023/02/10 11:21:35;;;;;;;;;;;;;;;3.70;100.00;101832.47;4943605;29;20021;-88
2023/02/10 11:24:00;;;;;;;;;;;;;;;3.67;100.00;101830.69;4928732;29;19919;-88
2023/02/10 11:26:26;;;;;;;;;;;;;;;3.66;100.00;101828.94;4928581;29;19934;-88
2023/02/10 11:28:55;;;;;;;;;;;;;;;3.60;100.00;101831.44;4928963;29;19926;-89
2023/02/10 11:31:32;;;;;;;;;;;;;;;3.60;100.00;101826.19;4930742;29;19922;-93
2023/02/10 11:33:58;;;;;;;;;;;;;;;3.56;100.00;101830.50;4945643;29;19929;-89
2023/02/10 11:39:56;;;;;;;;;;;;;;;3.47;100.00;101818.97;4905183;29;20065;-90
2023/02/10 11:42:45;;;;;;;;;;;;;;;3.49;100.00;101817.25;4927395;29;19946;-88
2023/02/10 11:45:10;;;;;;;;;;;;;;;3.41;100.00;101822.34;4946173;29;19973;-87
2023/02/10 11:47:38;;;;;;;;;;;;;;;3.40;100.00;101824.09;4942574;29;19922;-89
2023/02/10 11:50:04;;;;;;;;;;;;;;;3.37;100.00;101817.91;4928213;29;19926;-88
2023/02/10 11:52:29;;;;;;;;;;;;;;;3.35;100.00;101820.50;4925593;29;20049;-88
2023/02/10 12:00:54;;;;;;;;;;;;;;;3.25;100.00;101823.78;4945999;29;20389;-88
2023/02/10 12:03:38;;;;;;;;;;;;;;;3.23;100.00;101821.13;4943317;29;20435;-89
2023/02/10 12:06:12;;;;;;;;;;;;;;;3.22;100.00;101824.63;4945968;29;19923;-90
2023/02/10 12:08:57;;;;;;;;;;;;;;;3.22;100.00;101818.47;4942328;29;19919;-87
2023/02/10 12:11:35;;;;;;;;;;;;;;;;;;;;;
2023/02/10 12:14:33;;;;;;;;;;;;;;;3.17;100.00;101830.59;4947067;29;20327;-89
2023/02/10 12:17:17;;;;;;;;;;;;;;;3.15;100.00;101822.72;4956342;28;20382;-90
2023/02/10 12:20:39;;;;;;;;;;;;;;;3.14;100.00;101815.69;4944260;29;20397;-88
2023/02/10 12:23:09;;;;;;;;;;;;;;;3.09;100.00;101813.00;4929292;29;19927;-88
2023/02/10 12:25:56;;;;;;;;;;;;;;;3.11;100.00;101807.78;4944670;29;19926;-88
2023/02/10 12:28:43;;;;;;;;;;;;;;;3.10;100.00;101813.88;4958219;28;20717;-88
2023/02/10 12:31:09;;;;;;;;;;;;;;;3.07;100.00;101809.47;4943286;29;20350;-88
2023/02/10 12:33:34;;;;;;;;;;;;;;;3.08;100.00;101811.22;4942070;29;19961;-89
2023/02/10 12:36:10;;;;;;;;;;;;;;;3.05;100.00;101811.16;4944061;29;19918;-89
2023/02/10 12:38:55;;;;;;;;;;;;;;;3.04;100.00;101813.75;4944518;29;20400;-89
2023/02/10 12:41:35;;;;;;;;;;;;;;;3.02;100.00;101816.34;4943792;29;19923;-88
2023/02/10 12:44:21;;;;;;;;;;;;;;;3.74;100.00;101810.72;4943593;29;20029;-90
2023/02/10 12:46:47;;;;;;;;;;;;;;;4.31;100.00;101822.16;4941471;29;19919;-87
2023/02/10 12:49:21;;;;;;;;;;;;;;;4.57;100.00;101811.13;4942961;29;19922;-92
2023/02/10 12:51:46;;;;;;;;;;;;;;;4.77;100.00;101812.31;4942092;29;19919;-89
2023/02/10 12:54:20;;;;;;;;;;;;;;;4.91;100.00;101809.84;4942905;28;19981;-87
2023/02/10 12:56:58;;;;;;;;;;;;;;;5.04;100.00;101801.25;4943429;29;19929;-88
2023/02/10 12:59:29;;;;;;;;;;;;;;;5.16;100.00;101803.13;4941622;29;19926;-88
2023/02/10 13:01:59;;;;;;;;;;;;;;;5.24;100.00;101804.09;4942582;29;19922;-89
2023/02/10 13:04:31;;;;;;;;;;;;;;;5.33;100.00;101800.72;4935649;29;19949;-87
2023/02/10 13:07:01;;;;;;;;;;;;;;;5.40;100.00;101804.28;4942387;29;20038;-88
2023/02/10 13:10:01;;;;;;;;;;;;;;;5.50;100.00;101816.63;4941420;29;19977;-87
2023/02/10 13:12:41;;;;;;;;;;;;;;;5.55;100.00;101804.44;4902494;29;20290;-89
2023/02/10 13:15:21;;;;;;;;;;;;;;;5.61;100.00;101807.09;4944752;29;19939;-89
2023/02/10 13:17:47;;;;;;;;;;;;;;;5.66;100.00;101809.78;4942233;29;19918;-89
2023/02/10 13:20:46;;;;;;;;;;;;;;;5.71;100.00;101805.47;4939276;29;19933;-90
2023/02/10 13:23:29;;;;;;;;;;;;;;;5.78;100.00;101801.16;4942434;29;20012;-88
2023/02/10 13:26:13;;;;;;;;;;;;;;;5.81;100.00;101795.91;4926430;29;19922;-88
2023/02/10 13:28:38;;;;;;;;;;;;;;;5.83;100.00;101787.16;4944350;29;19926;-89
2023/02/10 13:31:21;;;;;;;;;;;;;;;5.89;100.00;101788.97;4943812;29;20318;-90
2023/02/10 13:33:56;;;;;;;;;;;;;;;5.92;100.00;101789.00;4941927;29;19982;-87
2023/02/10 13:36:30;;;;;;;;;;;;;;;5.95;100.00;101788.13;4926726;29;19942;-85
2023/02/10 13:39:14;;;;;;;;;;;;;;;5.98;100.00;101781.19;4927352;29;20369;-88
2023/02/10 13:41:41;;;;;;;;;;;;;;;6.02;100.00;101778.56;4944617;29;19923;-89
2023/02/10 13:44:23;;;;;;;;;;;;;;;6.05;100.00;101786.47;4944205;29;19923;-87
2023/02/10 13:46:54;;;;;;;;;;;;;;;6.06;100.00;101775.94;4926210;29;19918;-88
2023/02/10 13:49:41;;;;;;;;;;;;;;;6.09;100.00;101775.09;4945843;29;19922;-88
2023/02/10 13:52:20;;;;;;;;;;;;;;;6.13;100.00;101771.63;4944925;29;19923;-85
2023/02/10 13:55:02;;;;;;;;;;;;;;;6.15;100.00;101770.75;4926462;29;19922;-92
2023/02/10 13:57:28;;;;;;;;;;;;;;;6.17;100.00;101773.41;4927829;29;20386;-88
2023/02/10 14:00:04;;;;;;;;;;;;;;;6.18;100.00;101770.78;4945729;29;19957;-89
2023/02/10 14:02:32;;;;;;;;;;;;;;;6.22;100.00;101770.81;4946111;29;19923;-90
2023/02/10 14:04:59;;;;;;;;;;;;;;;6.24;100.00;101771.69;4929212;29;20381;-88
2023/02/10 14:07:25;;;;;;;;;;;;;;;6.26;100.00;101767.34;4947811;29;19931;-91
2023/02/10 14:13:08;;;;;;;;;;;;;;;6.30;100.00;101763.84;4938885;29;19918;-89
2023/02/10 14:15:58;;;;;;;;;;;;;;;6.32;100.00;101767.38;4930549;29;19922;-90
2023/02/10 14:18:29;;;;;;;;;;;;;;;6.34;100.00;101755.09;4926065;29;20397;-88
2023/02/10 14:21:05;;;;;;;;;;;;;;;6.35;100.00;101744.56;4944251;29;19927;-88
2023/02/10 14:23:35;;;;;;;;;;;;;;;6.35;100.00;101746.31;4930591;29;20373;-89
2023/02/10 14:26:03;;;;;;;;;;;;;;;6.39;100.00;101753.38;4944473;29;20018;-89
2023/02/10 14:28:30;;;;;;;;;;;;;;;6.40;100.00;101756.88;4928760;29;19930;-87
2023/02/10 14:31:00;;;;;;;;;;;;;;;6.41;100.00;101751.59;4930102;29;20009;-88
2023/02/10 14:33:28;;;;;;;;;;;;;;;6.44;100.00;101746.38;4944692;29;20379;-89
2023/02/10 14:35:55;;;;;;;;;;;;;;;6.44;100.00;101742.84;4928865;29;19969;-88
2023/02/10 14:38:28;;;;;;;;;;;;;;;6.46;100.00;101743.75;4944013;29;19930;-89
2023/02/10 14:40:55;;;;;;;;;;;;;;;6.49;100.00;101741.13;4928363;29;20030;-89
2023/02/10 14:43:26;;;;;;;;;;;;;;;6.50;100.00;101735.00;4928316;29;20301;-90
2023/02/10 14:45:52;;;;;;;;;;;;;;;6.52;100.00;101735.88;4926088;29;19930;-87
2023/02/10 14:48:21;;;;;;;;;;;;;;;6.52;100.00;101733.25;4944210;29;19974;-88
2023/02/10 14:50:56;;;;;;;;;;;;;;;6.53;100.00;101732.38;4945960;29;19930;-88
2023/02/10 14:53:22;;;;;;;;;;;;;;;6.56;100.00;101724.50;4926588;29;19993;-89
2023/02/10 14:55:52;;;;;;;;;;;;;;;6.55;100.00;101726.22;4942527;29;20381;-89
2023/02/10 14:58:21;;;;;;;;;;;;;;;6.57;100.00;101735.91;4945207;29;19943;-90
2023/02/10 15:00:58;;;;;;;;;;;;;;;6.11;100.00;101729.50;4928134;29;19923;-89
2023/02/10 15:03:23;;;;;;;;;;;;;;;5.11;100.00;101733.88;4927388;29;19922;-88
2023/02/10 15:05:55;;;;;;;;;;;;;;;4.71;100.00;101736.06;4927717;29;20279;-90
2023/02/10 15:08:24;;;;;;;;;;;;;;;4.57;100.00;101743.75;4946379;29;19918;-89
2023/02/10 15:10:53;;;;;;;;;;;;;;;4.42;100.00;101747.06;4928709;29;20365;-88
2023/02/10 15:13:21;;;;;;;;;;;;;;;4.32;100.00;101748.69;4943716;29;20372;-89
2023/02/10 15:15:48;;;;;;;;;;;;;;;4.21;100.00;101744.13;4936109;29;20008;-89
2023/02/10 15:18:28;;;;;;;;;;;;;;;4.07;100.00;101744.81;4925665;29;20483;-88
2023/02/10 15:20:55;;;;;;;;;;;;;;;3.99;100.00;101739.44;4945556;29;19934;-87
2023/02/10 15:23:21;;;;;;;;;;;;;;;3.93;100.00;101733.22;4944382;29;19930;-89
2023/02/10 15:25:57;;;;;;;;;;;;;;;3.90;100.00;101741.91;4928535;29;19918;-87
2023/02/10 15:28:29;;;;;;;;;;;;;;;3.85;100.00;101745.34;4945303;29;19922;-88
2023/02/10 15:31:21;;;;;;;;;;;;;;;3.81;100.00;101742.66;4928412;29;20026;-89
2023/02/10 15:33:51;;;;;;;;;;;;;;;3.75;100.00;101729.44;4927122;29;20010;-89
2023/02/10 15:36:23;;;;;;;;;;;;;;;3.69;100.00;101726.72;4941587;29;20294;-89
2023/02/10 15:38:57;;;;;;;;;;;;;;;3.67;100.00;101727.53;4946274;29;20405;-93
2023/02/10 15:42:03;;;;;;;;;;;;;;;3.63;100.00;101726.63;4944465;29;20378;-90
2023/02/10 15:45:01;;;;;;;;;;;;;;;3.56;100.00;101735.25;4871322;29;19923;-92
2023/02/10 15:47:52;;;;;;;;;;;;;;;;;;;;;
2023/02/10 15:50:27;;;;;;;;;;;;;;;3.51;100.00;101718.53;4944067;29;19922;-88
2023/02/10 15:52:52;;;;;;;;;;;;;;;3.48;100.00;101710.63;4946124;29;19918;-88
2023/02/10 15:55:44;;;;;;;;;;;;;;;3.45;100.00;101712.34;4927154;29;20393;-88
2023/02/10 15:58:23;;;;;;;;;;;;;;;;;;;;;
2023/02/10 16:00:51;;;;;;;;;;;;;;;3.44;100.00;101713.19;4945155;29;19918;-89
2023/02/10 16:06:31;;;;;;;;;;;;;;;3.37;100.00;101710.47;4941587;28;19970;-90
2023/02/10 16:08:59;;;;;;;;;;;;;;;3.33;100.00;101713.88;4914604;29;19927;-88
2023/02/10 16:11:28;;;;;;;;;;;;;;;3.33;100.00;101713.88;4907497;29;19938;-87
2023/02/10 16:13:53;;;;;;;;;;;;;;;3.31;100.00;101708.59;4923142;29;20363;-89
2023/02/10 16:16:18;;;;;;;;;;;;;;;3.31;100.00;101705.97;4923252;29;19930;-88
2023/02/10 16:18:43;;;;;;;;;;;;;;;3.28;100.00;101700.69;4913788;29;20017;-88
2023/02/10 16:21:29;;;;;;;;;;;;;;;3.27;100.00;101707.66;4939523;29;19919;-89
2023/02/10 16:24:10;;;;;;;;;;;;;;;;;;;;;
2023/02/10 16:26:39;;;;;;;;;;;;;;;3.24;100.00;101712.00;4922552;29;19923;-91
2023/02/10 16:29:04;;;;;;;;;;;;;;;3.22;100.00;101695.34;4907776;29;19959;-89
2023/02/10 16:31:30;;;;;;;;;;;;;;;3.22;100.00;101692.72;4923648;29;19919;-87
2023/02/10 16:33:55;;;;;;;;;;;;;;;3.19;100.00;101708.38;4919323;29;19923;-88
2023/02/10 16:36:20;;;;;;;;;;;;;;;3.17;100.00;101704.84;4914048;29;19919;-88
2023/02/10 16:38:48;;;;;;;;;;;;;;;3.15;100.00;101714.44;4924649;29;20001;-89
2023/02/10 16:41:13;;;;;;;;;;;;;;;3.18;100.00;101723.22;4970455;28;20333;-89
2023/02/10 16:43:51;;;;;;;;;;;;;;;3.17;100.00;101725.81;4961934;28;19922;-89
2023/02/10 16:46:26;;;;;;;;;;;;;;;3.17;100.00;101728.44;4963849;28;19965;-90
2023/02/10 16:48:54;;;;;;;;;;;;;;;3.16;100.00;101724.03;4960592;28;19919;-88
2023/02/10 16:51:22;;;;;;;;;;;;;;;3.14;100.00;101736.22;4964107;28;20338;-91
2023/02/10 16:53:57;;;;;;;;;;;;;;;3.09;100.00;101721.34;4980332;28;19923;-89
2023/02/10 16:56:25;;;;;;;;;;;;;;;3.08;100.00;101727.41;4977690;28;20366;-91
2023/02/10 16:59:17;;;;;;;;;;;;;;;3.08;100.00;101735.28;4962624;28;19962;-89
2023/02/10 17:01:43;;;;;;;;;;;;;;;3.09;100.00;101739.66;4960978;28;19977;-88
2023/02/10 17:04:08;;;;;;;;;;;;;;;3.07;100.00;101743.97;4961781;28;19964;-89
2023/02/10 17:06:35;;;;;;;;;;;;;;;3.08;100.00;101747.50;4945887;28;19980;-89
2023/02/10 17:09:01;;;;;;;;;;;;;;;3.05;100.00;101748.31;4945235;28;19922;-89
2023/02/10 17:11:26;;;;;;;;;;;;;;;3.07;100.00;101748.34;4962447;28;19925;-86
2023/02/10 17:14:04;;;;;;;;;;;;;;;;;;;;;
2023/02/10 17:17:04;;;;;;;;;;;;;;;;;;;;;
2023/02/10 17:19:31;;;;;;;;;;;;;;;3.03;100.00;101754.34;4956057;28;19925;-89
2023/02/10 17:21:57;;;;;;;;;;;;;;;3.01;100.00;101756.06;4948195;28;19972;-90
2023/02/10 17:24:55;;;;;;;;;;;;;;;;;;;;;
2023/02/10 17:27:21;;;;;;;;;;;;;;;4.03;100.00;101750.84;4960745;28;19918;-89
2023/02/10 17:29:46;;;;;;;;;;;;;;;4.34;100.00;101751.28;4965931;28;20012;-91
2023/02/10 17:32:14;;;;;;;;;;;;;;;4.55;100.00;101750.72;4967063;28;19918;-91
2023/02/10 17:34:43;;;;;;;;;;;;;;;4.69;100.00;101743.91;4948547;28;19918;-89
2023/02/10 17:37:15;;;;;;;;;;;;;;;4.81;100.00;101751.03;4966952;28;20358;-91
2023/02/10 17:39:41;;;;;;;;;;;;;;;4.92;100.00;101751.19;4967080;28;19918;-89
2023/02/10 17:42:06;;;;;;;;;;;;;;;4.99;100.00;101750.38;4967087;28;19977;-87
2023/02/10 17:44:32;;;;;;;;;;;;;;;5.08;100.00;101754.88;4965810;28;20390;-86
2023/02/10 17:46:58;;;;;;;;;;;;;;;5.14;100.00;101754.94;4957408;28;19918;-89
2023/02/10 17:49:28;;;;;;;;;;;;;;;5.19;100.00;101755.88;4966234;28;19925;-86
2023/02/10 17:51:54;;;;;;;;;;;;;;;5.25;100.00;101753.31;4966560;28;20355;-89
2023/02/10 17:54:24;;;;;;;;;;;;;;;5.31;100.00;101759.47;4947799;28;19919;-88
2023/02/10 17:56:51;;;;;;;;;;;;;;;5.36;100.00;101761.31;4948037;28;19989;-89
2023/02/10 17:59:19;;;;;;;;;;;;;;;5.40;100.00;101762.22;4948365;28;20430;-89
2023/02/10 18:02:05;;;;;;;;;;;;;;;5.44;100.00;101759.63;4963061;28;19930;-89
2023/02/10 18:04:30;;;;;;;;;;;;;;;5.51;100.00;101759.69;4965539;28;20354;-90
2023/02/10 18:06:55;;;;;;;;;;;;;;;5.53;100.00;101769.34;4948617;28;19969;-89
2023/02/10 18:09:36;;;;;;;;;;;;;;;5.57;100.00;101765.00;4964808;28;20338;-89
2023/02/10 18:12:07;;;;;;;;;;;;;;;5.61;100.00;101761.53;4949153;28;19966;-89
2023/02/10 18:14:33;;;;;;;;;;;;;;;5.64;100.00;101762.44;4965314;28;20417;-89
2023/02/10 18:16:58;;;;;;;;;;;;;;;5.70;100.00;101766.00;4946429;28;19927;-90
2023/02/10 18:19:24;;;;;;;;;;;;;;;5.71;100.00;101768.66;4963513;28;19969;-89
2023/02/10 18:21:52;;;;;;;;;;;;;;;5.74;100.00;101768.66;4964222;28;20673;-89
2023/02/10 18:24:17;;;;;;;;;;;;;;;5.77;100.00;101771.31;4964727;28;20573;-90
2023/02/10 18:26:51;;;;;;;;;;;;;;;5.82;100.00;101771.34;4947304;28;19922;-88
2023/02/10 18:29:24;;;;;;;;;;;;;;;5.85;100.00;101776.63;4962823;28;19926;-90
2023/02/10 18:31:49;;;;;;;;;;;;;;;5.87;100.00;101779.28;4946649;28;19926;-88
2023/02/10 18:34:14;;;;;;;;;;;;;;;5.90;100.00;101779.31;4955056;28;20296;-89
2023/02/10 18:36:55;;;;;;;;;;;;;;;;;;;;;
2023/02/10 18:39:21;;;;;;;;;;;;;;;5.95;100.00;101783.75;4962812;28;19926;-87
2023/02/10 18:41:47;;;;;;;;;;;;;;;5.97;100.00;101782.03;4966490;28;19945;-87
2023/02/10 18:44:12;;;;;;;;;;;;;;;5.99;100.00;101784.69;4966151;28;20412;-88
2023/02/10 18:47:05;;;;;;;;;;;;;;;6.03;100.00;101777.69;4964735;28;20012;-90
2023/02/10 18:49:33;;;;;;;;;;;;;;;6.05;100.00;101778.56;4887277;29;20394;-88
2023/02/10 18:51:58;;;;;;;;;;;;;;;6.06;100.00;101783.84;4958273;28;19928;-88
2023/02/10 18:57:18;;;;;;;;;;;;;;;6.09;100.00;101791.78;4961372;28;19923;-89
2023/02/10 18:59:43;;;;;;;;;;;;;;;6.10;100.00;101785.66;4946830;28;19923;-89
2023/02/10 19:02:11;;;;;;;;;;;;;;;6.13;100.00;101790.06;4947855;28;19927;-88
2023/02/10 19:04:36;;;;;;;;;;;;;;;6.13;100.00;101787.44;4963798;28;19990;-90
2023/02/10 19:07:40;;;;;;;;;;;;;;;6.16;100.00;101790.09;4948786;28;19937;-88
2023/02/10 19:10:05;;;;;;;;;;;;;;;6.17;100.00;101800.63;4953999;28;20401;-89
2023/02/10 19:12:30;;;;;;;;;;;;;;;6.19;100.00;101790.13;4964141;28;19953;-87
2023/02/10 19:14:56;;;;;;;;;;;;;;;6.21;100.00;101796.25;4964500;28;20475;-88
2023/02/10 19:17:21;;;;;;;;;;;;;;;6.20;100.00;101788.34;4964394;28;20017;-89
2023/02/10 19:19:51;;;;;;;;;;;;;;;6.22;100.00;101782.22;4954018;28;19922;-89
2023/02/10 19:22:20;;;;;;;;;;;;;;;6.23;100.00;101783.97;4964700;28;19925;-87
2023/02/10 19:24:45;;;;;;;;;;;;;;;6.24;100.00;101775.22;4964845;28;19981;-85
2023/02/10 19:27:45;;;;;;;;;;;;;;;6.24;100.00;101780.50;4964372;28;19926;-94
2023/02/10 19:30:11;;;;;;;;;;;;;;;6.27;100.00;101780.50;4906973;29;19930;-85
2023/02/10 19:32:41;;;;;;;;;;;;;;;6.29;100.00;101786.66;4913726;28;19926;-86
2023/02/10 19:35:06;;;;;;;;;;;;;;;6.30;100.00;101784.91;4963685;28;19926;-90
2023/02/10 19:37:37;;;;;;;;;;;;;;;6.32;100.00;101789.31;4964659;28;19922;-86
2023/02/10 19:40:03;;;;;;;;;;;;;;;6.32;100.00;101777.91;4946347;28;19926;-90
2023/02/10 19:42:38;;;;;;;;;;;;;;;6.32;100.00;101788.44;4964609;28;19925;-89
2023/02/10 19:45:03;;;;;;;;;;;;;;;6.33;100.00;101795.44;4959839;28;19933;-89
2023/02/10 19:47:29;;;;;;;;;;;;;;;6.35;100.00;101785.81;4962931;28;20294;-88
2023/02/10 19:50:02;;;;;;;;;;;;;;;6.35;100.00;101791.97;4961446;28;20389;-90
2023/02/10 19:52:51;;;;;;;;;;;;;;;6.35;100.00;101789.34;4946606;28;19938;-90
2023/02/10 19:55:26;;;;;;;;;;;;;;;6.38;100.00;101790.22;4931747;28;20294;-86
2023/02/10 19:57:51;;;;;;;;;;;;;;;6.39;100.00;101784.97;4945778;28;20015;-87
2023/02/10 20:00:19;;;;;;;;;;;;;;;6.41;100.00;101784.97;4962857;28;20017;-87
2023/02/10 20:02:44;;;;;;;;;;;;;;;6.40;100.00;101780.56;4944113;28;20070;-87
2023/02/10 20:05:27;;;;;;;;;;;;;;;6.41;100.00;101777.94;4961890;28;20005;-88
2023/02/10 20:08:04;;;;;;;;;;;;;;;6.42;100.00;101778.84;4946415;28;20042;-87
2023/02/10 20:10:37;;;;;;;;;;;;;;;6.41;100.00;101766.53;4945815;28;20034;-90
2023/02/10 20:13:12;;;;;;;;;;;;;;;6.43;100.00;101770.06;4961153;28;19922;-87
2023/02/10 20:15:58;;;;;;;;;;;;;;;6.46;100.00;101778.88;4945283;28;19973;-85
2023/02/10 20:18:24;;;;;;;;;;;;;;;6.46;100.00;101778.88;4944629;28;19934;-86
2023/02/10 20:21:01;;;;;;;;;;;;;;;6.47;100.00;101771.84;4942479;28;20282;-90
2023/02/10 20:23:27;;;;;;;;;;;;;;;6.49;100.00;101772.72;4943974;28;19926;-85
2023/02/10 20:25:56;;;;;;;;;;;;;;;6.10;100.00;101764.59;4943331;28;20082;-90
2023/02/10 20:28:39;;;;;;;;;;;;;;;;;;;;;
2023/02/10 20:31:10;;;;;;;;;;;;;;;4.61;100.00;101776.16;4960440;28;19930;-87
2023/02/10 20:33:43;;;;;;;;;;;;;;;4.41;100.00;101776.78;4945277;28;19919;-91
2023/02/10 20:36:11;;;;;;;;;;;;;;;4.34;100.00;101782.78;4960436;28;19929;-88
2023/02/10 20:38:39;;;;;;;;;;;;;;;4.19;100.00;101792.19;4946314;28;19929;-86
2023/02/10 20:41:13;;;;;;;;;;;;;;;4.10;100.00;101788.56;4960534;28;19933;-85
2023/02/10 20:44:17;;;;;;;;;;;;;;;4.00;100.00;101779.66;4943276;28;19930;-90
2023/02/10 20:46:46;;;;;;;;;;;;;;;3.90;100.00;101783.88;4961905;28;20062;-87
2023/02/10 20:49:11;;;;;;;;;;;;;;;3.81;100.00;101774.13;4941006;28;19929;-85
2023/02/10 20:51:36;;;;;;;;;;;;;;;3.77;100.00;101779.31;4960957;28;19926;-88
2023/02/10 20:54:02;;;;;;;;;;;;;;;3.73;100.00;101782.72;4944336;28;19954;-86
2023/02/10 20:56:27;;;;;;;;;;;;;;;3.71;100.00;101771.31;4940820;28;19965;-86
2023/02/10 20:58:59;;;;;;;;;;;;;;;3.63;100.00;101769.44;4929209;28;19925;-88
2023/02/10 21:02:06;;;;;;;;;;;;;;;3.62;100.00;101774.66;4945131;28;19928;-89
2023/02/10 21:04:51;;;;;;;;;;;;;;;3.55;100.00;101773.66;4957851;28;19922;-87
2023/02/10 21:07:20;;;;;;;;;;;;;;;3.49;100.00;101770.06;4959329;28;20449;-90
2023/02/10 21:09:45;;;;;;;;;;;;;;;3.49;100.00;101772.69;4962207;28;19977;-87
2023/02/10 21:15:05;;;;;;;;;;;;;;;3.42;100.00;101776.94;4930436;28;19953;-89
2023/02/10 21:17:33;;;;;;;;;;;;;;;3.38;100.00;101769.84;4961893;28;20469;-90
2023/02/10 21:19:58;;;;;;;;;;;;;;;3.36;100.00;101768.97;4962208;28;20005;-88
2023/02/10 21:22:43;;;;;;;;;;;;;;;3.35;100.00;101765.47;4963407;28;20024;-90
2023/02/10 21:25:09;;;;;;;;;;;;;;;3.28;100.00;101761.81;4961355;28;19918;-88
2023/02/10 21:27:38;;;;;;;;;;;;;;;3.28;100.00;101760.94;4962293;28;19985;-89
2023/02/10 21:30:05;;;;;;;;;;;;;;;3.26;100.00;101760.91;4957660;28;19922;-85
2023/02/10 21:35:56;;;;;;;;;;;;;;;3.31;100.00;101762.75;5126457;27;19924;-91
2023/02/10 21:38:21;;;;;;;;;;;;;;;3.27;100.00;101764.41;5109024;28;20304;-88
2023/02/10 21:40:59;;;;;;;;;;;;;;;3.25;100.00;101767.00;5095626;28;20010;-89
2023/02/10 21:43:53;;;;;;;;;;;;;;;3.17;100.00;101768.59;5099274;28;19992;-89
2023/02/10 21:46:18;;;;;;;;;;;;;;;3.16;100.00;101765.94;5077096;28;19982;-83
2023/02/10 21:48:43;;;;;;;;;;;;;;;3.20;100.00;101765.16;5073884;28;19963;-88
2023/02/10 21:51:19;;;;;;;;;;;;;;;3.22;100.00;101766.06;5075699;28;19920;-88
2023/02/10 21:53:44;;;;;;;;;;;;;;;3.14;100.00;101767.66;5071391;28;20007;-86
2023/02/10 21:56:35;;;;;;;;;;;;;;;3.14;100.00;101765.03;5076700;28;20018;-89
2023/02/10 21:59:08;;;;;;;;;;;;;;;3.11;100.00;101764.97;5069456;28;20188;-90
2023/02/10 22:01:36;;;;;;;;;;;;;;;3.08;100.00;101769.31;5072835;28;20002;-91
2023/02/10 22:04:05;;;;;;;;;;;;;;;3.04;100.00;101767.47;5056857;28;19978;-89
2023/02/10 22:07:27;;;;;;;;;;;;;;;;;;;;;
2023/02/10 22:09:43;;;;;;;;;;;;;;;2.96;100.00;101742.88;5066566;28;20345;-89
2023/02/10 22:12:40;;;;;;;;;;;;;;;2.97;100.00;101743.75;5073501;28;19921;-94